createdAt,value
2019-06-26T00:01:50.616Z,50.95
2019-06-26T00:04:19.918Z,37.55
2019-06-26T00:06:49.139Z,39.27
2019-06-26T00:09:18.279Z,46.98
2019-06-26T00:11:47.542Z,39.45
2019-06-26T00:14:16.712Z,39.25
2019-06-26T00:16:45.932Z,52.00
2019-06-26T00:19:15.147Z,54.00
2019-06-26T00:21:44.296Z,42.60
2019-06-26T00:24:13.464Z,52.43
2019-06-26T00:26:42.607Z,44.03
2019-06-26T00:29:11.890Z,39.88
2019-06-26T00:31:41.095Z,59.05
2019-06-26T00:34:10.410Z,52.40
2019-06-26T00:36:39.604Z,42.23
2019-06-26T00:39:08.745Z,47.17
2019-06-26T00:41:37.959Z,54.33
2019-06-26T00:44:07.095Z,59.00
2019-06-26T00:46:36.301Z,49.88
2019-06-26T00:49:05.621Z,39.25
2019-06-26T00:51:34.763Z,42.23
2019-06-26T00:54:03.896Z,45.92
2019-06-26T00:56:33.042Z,41.88
2019-06-26T00:59:02.204Z,46.30
2019-06-26T01:01:31.420Z,54.63
2019-06-26T01:04:04.695Z,48.38
2019-06-26T01:06:45.778Z,50.88
2019-06-26T01:09:15.672Z,60.52
2019-06-26T01:11:44.856Z,36.80
2019-06-26T01:14:14.015Z,48.87
2019-06-26T01:16:43.189Z,62.50
2019-06-26T01:19:12.388Z,62.27
2019-06-26T01:21:41.526Z,51.77
2019-06-26T01:24:10.673Z,48.48
2019-06-26T01:26:39.869Z,59.10
2019-06-26T01:29:09.085Z,51.00
2019-06-26T01:31:38.305Z,40.08
2019-06-26T01:34:07.477Z,38.58
2019-06-26T01:36:36.647Z,46.02
2019-06-26T01:39:06.935Z,43.63
2019-06-26T01:41:36.290Z,39.03
2019-06-26T01:44:14.758Z,55.12
2019-06-26T01:46:36.838Z,61.65
2019-06-26T01:49:06.061Z,42.45
2019-06-26T01:51:35.230Z,40.08
2019-06-26T01:54:04.404Z,58.73
2019-06-26T01:56:33.555Z,45.67
2019-06-26T01:59:02.708Z,43.23
2019-06-26T02:01:32.023Z,47.15
2019-06-26T02:04:01.202Z,49.08
2019-06-26T02:06:30.367Z,49.00
2019-06-26T02:08:59.504Z,56.53
2019-06-26T02:11:28.748Z,41.35
2019-06-26T02:13:57.958Z,37.78
2019-06-26T02:16:27.110Z,43.75
2019-06-26T02:19:00.155Z,44.18
2019-06-26T02:21:29.505Z,64.22
2019-06-26T02:23:58.740Z,55.40
2019-06-26T02:26:27.956Z,69.45
2019-06-26T02:28:57.177Z,71.87
2019-06-26T02:31:26.396Z,63.23
2019-06-26T02:33:55.688Z,49.77
2019-06-26T02:36:24.985Z,66.15
2019-06-26T02:38:54.210Z,77.37
2019-06-26T02:41:23.362Z,58.92
2019-06-26T02:43:53.272Z,94.22
2019-06-26T02:46:22.632Z,84.40
2019-06-26T02:48:51.756Z,61.63
2019-06-26T02:51:21.196Z,79.58
2019-06-26T02:53:50.462Z,52.98
2019-06-26T02:56:19.714Z,61.28
2019-06-26T02:58:49.032Z,53.15
2019-06-26T03:01:18.178Z,86.78
2019-06-26T03:03:47.385Z,72.08
2019-06-26T03:06:16.604Z,57.65
2019-06-26T03:08:45.746Z,80.97
2019-06-26T03:11:15.055Z,81.17
2019-06-26T03:13:44.217Z,61.95
2019-06-26T03:16:13.775Z,66.45
2019-06-26T03:18:43.044Z,66.45
2019-06-26T03:21:12.290Z,75.15
2019-06-26T03:23:41.481Z,88.52
2019-06-26T03:26:10.624Z,75.92
2019-06-26T03:28:39.798Z,65.25
2019-06-26T03:31:09.087Z,67.67
2019-06-26T03:33:38.239Z,76.92
2019-06-26T03:36:07.478Z,117.65
2019-06-26T03:38:36.775Z,64.45
2019-06-26T03:41:06.041Z,76.55
2019-06-26T03:43:35.704Z,85.12
2019-06-26T03:46:05.753Z,88.00
2019-06-26T03:48:34.979Z,81.92
2019-06-26T03:51:04.364Z,80.95
2019-06-26T03:53:33.849Z,69.90
2019-06-26T03:56:03.058Z,71.90
2019-06-26T03:58:32.206Z,92.45
2019-06-26T04:01:01.413Z,72.35
2019-06-26T04:03:30.595Z,78.57
2019-06-26T04:05:59.794Z,108.15
2019-06-26T04:08:29.180Z,68.30
2019-06-26T04:11:00.224Z,94.40
2019-06-26T04:13:29.522Z,80.95
2019-06-26T04:15:58.779Z,89.28
2019-06-26T04:18:27.958Z,86.53
2019-06-26T04:20:57.126Z,59.18
2019-06-26T04:23:26.287Z,86.57
2019-06-26T04:25:55.453Z,72.05
2019-06-26T04:28:24.617Z,66.80
2019-06-26T04:30:53.822Z,93.58
2019-06-26T04:33:22.999Z,78.80
2019-06-26T04:35:52.210Z,75.60
2019-06-26T04:38:21.436Z,81.72
2019-06-26T04:40:50.652Z,111.08
2019-06-26T04:43:19.877Z,113.57
2019-06-26T04:45:58.180Z,97.88
2019-06-26T04:48:19.959Z,79.37
2019-06-26T04:50:49.230Z,58.80
2019-06-26T04:53:18.567Z,77.22
2019-06-26T04:55:47.893Z,98.72
2019-06-26T04:58:17.121Z,55.63
2019-06-26T05:00:46.414Z,74.92
2019-06-26T05:03:16.018Z,67.20
2019-06-26T05:05:45.280Z,91.02
2019-06-26T05:08:14.443Z,70.12
2019-06-26T05:10:43.587Z,85.35
2019-06-26T05:13:12.719Z,59.25
2019-06-26T05:15:41.967Z,62.08
2019-06-26T05:18:11.167Z,57.73
2019-06-26T05:20:40.395Z,77.15
2019-06-26T05:23:09.818Z,62.83
2019-06-26T05:25:39.116Z,58.92
2019-06-26T05:28:08.664Z,64.75
2019-06-26T05:30:38.155Z,80.85
2019-06-26T05:33:07.383Z,82.22
2019-06-26T05:35:36.613Z,66.50
2019-06-26T05:38:05.791Z,77.60
2019-06-26T05:40:35.080Z,82.70
2019-06-26T05:43:04.295Z,70.10
2019-06-26T05:45:33.458Z,88.35
2019-06-26T05:48:02.804Z,67.55
2019-06-26T05:50:32.103Z,65.28
2019-06-26T05:53:01.264Z,83.72
2019-06-26T05:55:30.579Z,100.42
2019-06-26T05:57:59.919Z,79.05
2019-06-26T06:00:29.135Z,90.45
2019-06-26T06:02:58.481Z,91.15
2019-06-26T06:05:27.705Z,98.85
2019-06-26T06:07:57.026Z,86.32
2019-06-26T06:10:26.238Z,65.32
2019-06-26T06:12:55.450Z,70.72
2019-06-26T06:15:24.756Z,93.22
2019-06-26T06:17:53.911Z,73.10
2019-06-26T06:20:30.768Z,85.80
2019-06-26T06:22:59.980Z,96.20
2019-06-26T06:25:29.142Z,59.40
2019-06-26T06:27:58.574Z,87.35
2019-06-26T06:30:27.821Z,84.35
2019-06-26T06:32:57.277Z,90.32
2019-06-26T06:35:26.432Z,96.72
2019-06-26T06:37:55.652Z,97.75
2019-06-26T06:40:25.415Z,84.40
2019-06-26T06:42:54.603Z,98.15
2019-06-26T06:45:24.079Z,74.42
2019-06-26T06:47:53.526Z,78.00
2019-06-26T06:50:22.750Z,88.60
2019-06-26T06:52:51.909Z,66.62
2019-06-26T06:55:21.106Z,92.65
2019-06-26T06:57:50.736Z,96.72
2019-06-26T07:00:20.862Z,72.87
2019-06-26T07:02:50.032Z,84.97
2019-06-26T07:05:19.299Z,86.12
2019-06-26T07:07:48.540Z,67.17
2019-06-26T07:10:18.493Z,91.67
2019-06-26T07:12:47.796Z,64.07
2019-06-26T07:15:17.717Z,80.62
2019-06-26T07:17:46.968Z,94.83
2019-06-26T07:20:16.891Z,71.22
2019-06-26T07:22:46.148Z,86.02
2019-06-26T07:25:15.763Z,68.45
2019-06-26T07:27:44.917Z,69.65
2019-06-26T07:30:14.967Z,96.28
2019-06-26T07:32:44.099Z,66.95
2019-06-26T07:35:13.315Z,76.28
2019-06-26T07:37:42.546Z,70.57
2019-06-26T07:40:11.983Z,79.72
2019-06-26T07:42:41.309Z,67.80
2019-06-26T07:45:11.059Z,77.37
2019-06-26T07:47:43.498Z,69.75
2019-06-26T07:50:11.592Z,60.63
2019-06-26T07:52:40.890Z,57.85
2019-06-26T07:55:12.436Z,93.20
2019-06-26T07:57:41.784Z,87.10
2019-06-26T08:00:11.772Z,79.40
2019-06-26T08:02:40.976Z,76.72
2019-06-26T08:05:10.666Z,77.47
2019-06-26T08:07:39.903Z,75.10
2019-06-26T08:10:09.246Z,58.78
2019-06-26T08:12:38.417Z,64.03
2019-06-26T08:15:08.057Z,75.00
2019-06-26T08:17:37.272Z,67.55
2019-06-26T08:20:07.069Z,70.57
2019-06-26T08:22:36.207Z,67.03
2019-06-26T08:25:06.102Z,61.60
2019-06-26T08:27:35.343Z,72.92
2019-06-26T08:30:05.524Z,65.00
2019-06-26T08:32:34.746Z,77.10
2019-06-26T08:35:04.460Z,76.45
2019-06-26T08:37:33.686Z,60.60
2019-06-26T08:40:02.852Z,68.83
2019-06-26T08:42:32.008Z,59.90
2019-06-26T08:45:01.345Z,84.65
2019-06-26T08:47:30.775Z,74.50
2019-06-26T08:50:00.122Z,61.92
2019-06-26T08:52:29.356Z,63.55
2019-06-26T08:54:58.503Z,69.58
2019-06-26T08:57:27.743Z,63.25
2019-06-26T08:59:56.901Z,73.30
2019-06-26T09:02:26.065Z,64.32
2019-06-26T09:04:55.272Z,73.80
2019-06-26T09:07:24.405Z,65.25
2019-06-26T09:09:53.848Z,66.85
2019-06-26T09:12:23.178Z,57.35
2019-06-26T09:14:52.362Z,58.23
2019-06-26T09:17:21.620Z,65.65
2019-06-26T09:19:50.865Z,75.60
2019-06-26T09:22:20.129Z,69.65
2019-06-26T09:24:49.340Z,52.48
2019-06-26T09:27:18.543Z,61.08
2019-06-26T09:29:47.689Z,58.98
2019-06-26T09:32:16.937Z,53.00
2019-06-26T09:34:46.185Z,59.75
2019-06-26T09:37:15.336Z,47.00
2019-06-26T09:39:44.530Z,47.75
2019-06-26T09:42:13.778Z,56.48
2019-06-26T09:44:43.024Z,60.60
2019-06-26T09:47:15.531Z,58.95
2019-06-26T09:49:43.185Z,52.33
2019-06-26T09:52:12.360Z,42.15
2019-06-26T09:54:41.663Z,39.90
2019-06-26T09:57:10.906Z,49.70
2019-06-26T09:59:40.179Z,34.00
2019-06-26T10:02:09.330Z,46.20
2019-06-26T10:04:38.638Z,44.98
2019-06-26T10:07:07.851Z,52.13
2019-06-26T10:09:37.088Z,40.10
2019-06-26T10:12:06.301Z,60.43
2019-06-26T10:14:47.410Z,43.90
2019-06-26T10:17:06.503Z,41.18
2019-06-26T10:19:35.642Z,41.73
2019-06-26T10:22:04.864Z,49.23
2019-06-26T10:24:34.166Z,35.80
2019-06-26T10:27:03.341Z,36.05
2019-06-26T10:29:32.609Z,41.95
2019-06-26T10:32:01.880Z,38.70
2019-06-26T10:34:31.189Z,38.33
2019-06-26T10:37:00.374Z,31.48
2019-06-26T10:39:29.697Z,34.95
2019-06-26T10:41:58.950Z,26.57
2019-06-26T10:44:28.977Z,31.25
2019-06-26T10:46:58.206Z,27.13
2019-06-26T10:49:28.034Z,30.60
2019-06-26T10:51:57.654Z,30.80
2019-06-26T10:54:27.472Z,38.88
2019-06-26T10:56:56.643Z,36.65
2019-06-26T10:59:25.907Z,31.12
2019-06-26T11:01:55.274Z,23.02
2019-06-26T11:04:24.613Z,30.10
2019-06-26T11:06:53.904Z,27.80
2019-06-26T11:09:23.140Z,28.02
2019-06-26T11:11:52.986Z,31.55
2019-06-26T11:14:22.143Z,25.80
2019-06-26T11:16:51.316Z,23.55
2019-06-26T11:19:20.496Z,26.42
2019-06-26T11:21:49.729Z,28.87
2019-06-26T11:24:18.877Z,27.82
2019-06-26T11:26:48.174Z,35.88
2019-06-26T11:29:17.415Z,29.67
2019-06-26T11:31:46.621Z,35.15
2019-06-26T11:34:15.928Z,28.83
2019-06-26T11:37:02.374Z,37.30
2019-06-26T11:39:16.109Z,35.40
2019-06-26T11:41:45.259Z,34.60
2019-06-26T11:44:14.502Z,33.33
2019-06-26T11:46:43.725Z,38.65
2019-06-26T11:49:13.046Z,41.10
2019-06-26T11:51:42.198Z,48.63
2019-06-26T11:54:11.511Z,44.20
2019-06-26T11:56:40.684Z,43.73
2019-06-26T11:59:09.940Z,42.93
2019-06-26T12:01:39.209Z,47.90
2019-06-26T12:04:08.404Z,51.45
2019-06-26T12:06:37.606Z,53.78
2019-06-26T12:09:09.468Z,45.00
2019-06-26T12:11:38.742Z,39.38
2019-06-26T12:14:08.044Z,44.98
2019-06-26T12:16:37.229Z,41.58
2019-06-26T12:19:06.442Z,37.73
2019-06-26T12:21:35.821Z,42.30
2019-06-26T12:24:05.281Z,41.55
2019-06-26T12:26:34.418Z,35.95
2019-06-26T12:29:03.698Z,41.33
2019-06-26T12:31:32.922Z,31.97
2019-06-26T12:34:02.538Z,40.12
2019-06-26T12:36:31.868Z,36.05
2019-06-26T12:39:01.074Z,39.98
2019-06-26T12:41:31.688Z,40.00
2019-06-26T12:44:00.863Z,42.95
2019-06-26T12:46:30.076Z,37.88
2019-06-26T12:48:59.377Z,42.55
2019-06-26T12:51:28.779Z,48.73
2019-06-26T12:53:58.639Z,47.85
2019-06-26T12:56:28.077Z,50.23
2019-06-26T12:58:59.884Z,52.58
2019-06-26T13:01:28.212Z,52.90
2019-06-26T13:03:57.459Z,52.33
2019-06-26T13:06:26.833Z,46.42
2019-06-26T13:08:56.013Z,48.17
2019-06-26T13:11:25.312Z,58.10
2019-06-26T13:14:02.645Z,52.90
2019-06-26T13:16:25.402Z,49.15
2019-06-26T13:18:54.593Z,51.18
2019-06-26T13:21:23.860Z,56.10
2019-06-26T13:23:53.385Z,50.70
2019-06-26T13:26:22.658Z,48.98
2019-06-26T13:28:51.873Z,52.50
2019-06-26T13:31:21.043Z,42.53
2019-06-26T13:33:50.289Z,46.45
2019-06-26T13:36:19.453Z,44.93
2019-06-26T13:38:48.653Z,38.95
2019-06-26T13:41:17.926Z,49.33
2019-06-26T13:43:47.182Z,38.40
2019-06-26T13:46:16.323Z,36.80
2019-06-26T13:48:45.482Z,37.08
2019-06-26T13:51:14.673Z,43.40
2019-06-26T13:53:43.868Z,32.90
2019-06-26T13:56:13.469Z,45.25
2019-06-26T13:58:42.615Z,36.55
2019-06-26T14:01:11.814Z,42.15
2019-06-26T14:03:41.003Z,36.28
2019-06-26T14:06:10.169Z,33.30
2019-06-26T14:08:39.350Z,42.80
2019-06-26T14:11:08.598Z,37.48
2019-06-26T14:13:41.538Z,33.95
2019-06-26T14:16:08.765Z,30.02
2019-06-26T14:18:37.953Z,30.80
2019-06-26T14:21:07.075Z,27.37
2019-06-26T14:23:37.927Z,25.00
2019-06-26T14:26:07.286Z,27.13
2019-06-26T14:28:36.450Z,31.90
2019-06-26T14:31:05.694Z,32.08
2019-06-26T14:33:34.829Z,34.45
2019-06-26T14:36:04.101Z,31.40
2019-06-26T14:38:33.298Z,24.50
2019-06-26T14:41:02.630Z,28.42
2019-06-26T14:43:31.872Z,22.75
2019-06-26T14:46:01.208Z,29.80
2019-06-26T14:48:30.410Z,24.52
2019-06-26T14:50:59.648Z,20.37
2019-06-26T14:53:28.913Z,22.60
2019-06-26T14:55:58.262Z,19.27
2019-06-26T14:58:27.445Z,24.63
2019-06-26T15:00:56.607Z,17.17
2019-06-26T15:03:25.756Z,16.50
2019-06-26T15:05:55.019Z,18.20
2019-06-26T15:08:24.236Z,13.93
2019-06-26T15:10:53.414Z,14.07
2019-06-26T15:13:23.150Z,16.62
2019-06-26T15:15:54.714Z,16.10
2019-06-26T15:18:23.296Z,17.57
2019-06-26T15:20:52.514Z,14.10
2019-06-26T15:23:21.741Z,20.92
2019-06-26T15:25:51.409Z,19.15
2019-06-26T15:28:20.625Z,14.80
2019-06-26T15:30:49.998Z,17.15
2019-06-26T15:33:19.230Z,18.40
2019-06-26T15:35:48.419Z,23.52
2019-06-26T15:38:17.702Z,18.90
2019-06-26T15:40:47.029Z,17.62
2019-06-26T15:43:16.278Z,26.40
2019-06-26T15:45:45.500Z,22.58
2019-06-26T15:48:14.697Z,25.70
2019-06-26T15:50:43.946Z,21.93
2019-06-26T15:53:13.276Z,25.72
2019-06-26T15:55:42.500Z,28.47
2019-06-26T15:58:11.695Z,21.48
2019-06-26T16:00:40.904Z,20.68
2019-06-26T16:03:10.046Z,19.52
2019-06-26T16:05:39.209Z,21.33
2019-06-26T16:08:08.383Z,18.30
2019-06-26T16:10:37.662Z,18.95
2019-06-26T16:13:07.001Z,19.30
2019-06-26T16:15:37.787Z,21.87
2019-06-26T16:18:15.928Z,20.60
2019-06-26T16:20:45.141Z,16.77
2019-06-26T16:23:14.364Z,17.60
2019-06-26T16:25:43.544Z,16.07
2019-06-26T16:28:12.775Z,16.00
2019-06-26T16:30:42.052Z,14.95
2019-06-26T16:33:11.362Z,17.05
2019-06-26T16:35:40.605Z,13.65
2019-06-26T16:38:09.790Z,13.88
2019-06-26T16:40:39.021Z,16.15
2019-06-26T16:43:08.177Z,15.28
2019-06-26T16:45:37.360Z,11.10
2019-06-26T16:48:06.525Z,13.85
2019-06-26T16:50:35.744Z,16.87
2019-06-26T16:53:04.943Z,16.37
2019-06-26T16:55:34.355Z,10.65
2019-06-26T16:58:03.577Z,14.18
2019-06-26T17:00:32.733Z,10.00
2019-06-26T17:03:02.025Z,11.78
2019-06-26T17:05:31.176Z,12.23
2019-06-26T17:08:00.312Z,9.25
2019-06-26T17:10:29.509Z,7.92
2019-06-26T17:12:59.048Z,9.50
2019-06-26T17:15:28.304Z,10.28
2019-06-26T17:17:57.521Z,13.22
2019-06-26T17:20:26.877Z,10.88
2019-06-26T17:23:05.516Z,10.82
2019-06-26T17:25:26.954Z,10.88
2019-06-26T17:27:56.174Z,9.30
2019-06-26T17:30:25.555Z,8.60
2019-06-26T17:32:54.893Z,12.65
2019-06-26T17:35:24.096Z,7.60
2019-06-26T17:37:53.382Z,13.60
2019-06-26T17:40:22.682Z,9.70
2019-06-26T17:42:51.839Z,9.73
2019-06-26T17:45:21.292Z,7.92
2019-06-26T17:47:50.502Z,8.20
2019-06-26T17:50:20.223Z,12.40
2019-06-26T17:52:49.608Z,11.93
2019-06-26T17:55:19.270Z,11.03
2019-06-26T17:57:48.489Z,14.25
2019-06-26T18:00:19.664Z,11.48
2019-06-26T18:02:48.908Z,13.13
2019-06-26T18:05:18.240Z,9.43
2019-06-26T18:07:47.787Z,8.25
2019-06-26T18:10:17.108Z,9.45
2019-06-26T18:12:46.295Z,10.45
2019-06-26T18:15:15.718Z,10.48
2019-06-26T18:17:45.033Z,10.23
2019-06-26T18:20:14.619Z,7.62
2019-06-26T18:22:43.755Z,8.33
2019-06-26T18:25:16.475Z,8.70
2019-06-26T18:27:44.317Z,10.30
2019-06-26T18:30:14.237Z,7.45
2019-06-26T18:32:43.462Z,11.18
2019-06-26T18:35:12.633Z,11.30
2019-06-26T18:37:42.150Z,8.58
2019-06-26T18:40:12.020Z,10.63
2019-06-26T18:42:41.181Z,11.43
2019-06-26T18:45:10.837Z,10.23
2019-06-26T18:47:39.967Z,11.90
2019-06-26T18:50:10.241Z,10.28
2019-06-26T18:52:39.560Z,8.95
2019-06-26T18:55:09.364Z,8.13
2019-06-26T18:57:38.728Z,11.80
2019-06-26T19:00:08.973Z,8.78
2019-06-26T19:02:38.190Z,11.48
2019-06-26T19:05:07.773Z,7.25
2019-06-26T19:07:37.040Z,12.63
2019-06-26T19:10:06.833Z,5.87
2019-06-26T19:12:35.979Z,10.72
2019-06-26T19:15:06.220Z,8.93
2019-06-26T19:17:35.365Z,5.55
2019-06-26T19:20:05.641Z,8.23
2019-06-26T19:22:34.945Z,6.15
2019-06-26T19:25:04.609Z,6.78
2019-06-26T19:27:33.786Z,6.47
2019-06-26T19:30:03.346Z,5.95
2019-06-26T19:32:53.950Z,4.25
2019-06-26T19:35:23.102Z,7.72
2019-06-26T19:37:52.535Z,11.25
2019-06-26T19:40:24.097Z,8.95
2019-06-26T19:42:52.644Z,8.80
2019-06-26T19:45:24.243Z,3.77
2019-06-26T19:47:53.543Z,10.15
2019-06-26T19:50:23.734Z,8.48
2019-06-26T19:52:55.886Z,9.15
2019-06-26T19:55:25.104Z,10.60
2019-06-26T19:57:54.340Z,4.83
2019-06-26T20:00:23.597Z,5.17
2019-06-26T20:02:52.832Z,13.22
2019-06-26T20:05:22.060Z,7.53
2019-06-26T20:07:51.312Z,11.83
2019-06-26T20:10:21.014Z,13.18
2019-06-26T20:12:51.478Z,8.98
2019-06-26T20:15:20.664Z,9.70
2019-06-26T20:17:49.830Z,7.80
2019-06-26T20:20:19.272Z,9.80
2019-06-26T20:22:48.480Z,10.32
2019-06-26T20:25:18.214Z,13.93
2019-06-26T20:27:47.424Z,14.68
2019-06-26T20:30:16.651Z,15.95
2019-06-26T20:32:45.813Z,12.60
2019-06-26T20:35:15.228Z,13.60
2019-06-26T20:37:45.850Z,9.30
2019-06-26T20:40:15.324Z,8.40
2019-06-26T20:42:44.497Z,14.40
2019-06-26T20:45:13.934Z,17.75
2019-06-26T20:47:44.283Z,9.30
2019-06-26T20:50:13.486Z,6.92
2019-06-26T20:52:42.801Z,25.75
2019-06-26T20:55:11.973Z,10.70
2019-06-26T20:57:41.164Z,8.65
2019-06-26T21:00:10.891Z,14.78
2019-06-26T21:02:40.243Z,10.18
2019-06-26T21:05:10.018Z,11.57
2019-06-26T21:07:39.191Z,7.70
2019-06-26T21:10:08.989Z,9.95
2019-06-26T21:12:39.623Z,8.95
2019-06-26T21:15:09.441Z,8.80
2019-06-26T21:17:38.692Z,12.35
2019-06-26T21:20:11.242Z,7.35
2019-06-26T21:22:40.533Z,12.23
2019-06-26T21:25:18.158Z,17.27
2019-06-26T21:27:40.891Z,7.30
2019-06-26T21:30:10.806Z,11.08
2019-06-26T21:32:40.191Z,8.98
2019-06-26T21:35:09.374Z,10.75
2019-06-26T21:37:38.658Z,9.38
2019-06-26T21:40:08.628Z,18.37
2019-06-26T21:42:37.783Z,8.40
2019-06-26T21:45:07.836Z,7.78
2019-06-26T21:47:37.116Z,9.25
2019-06-26T21:50:07.062Z,10.13
2019-06-26T21:52:36.217Z,12.50
2019-06-26T21:55:05.566Z,7.97
2019-06-26T21:57:34.727Z,13.60
2019-06-26T22:00:08.378Z,11.18
2019-06-26T22:02:39.026Z,6.17
2019-06-26T22:05:08.651Z,10.18
2019-06-26T22:07:37.999Z,7.87
2019-06-26T22:10:07.772Z,6.58
2019-06-26T22:12:36.895Z,8.28
2019-06-26T22:15:11.780Z,12.47
2019-06-26T22:17:41.010Z,8.43
2019-06-26T22:20:12.735Z,10.32
2019-06-26T22:22:42.051Z,8.05
2019-06-26T22:25:12.590Z,10.55
2019-06-26T22:27:41.883Z,7.70
2019-06-26T22:30:15.261Z,6.80
2019-06-26T22:32:44.592Z,10.80
2019-06-26T22:35:14.266Z,7.03
2019-06-26T22:37:43.500Z,6.83
2019-06-26T22:40:12.899Z,6.28
2019-06-26T22:42:44.282Z,7.22
2019-06-26T22:45:15.011Z,9.93
2019-06-26T22:47:44.167Z,7.97
2019-06-26T22:50:13.713Z,10.40
2019-06-26T22:52:43.011Z,8.43
2019-06-26T22:55:14.795Z,11.18
2019-06-26T22:57:44.281Z,5.40
2019-06-26T23:00:17.793Z,9.65
2019-06-26T23:02:47.199Z,12.20
2019-06-26T23:05:16.392Z,6.40
2019-06-26T23:07:45.646Z,7.55
2019-06-26T23:10:15.476Z,8.83
2019-06-26T23:12:44.639Z,10.78
2019-06-26T23:15:17.465Z,7.12
2019-06-26T23:17:46.590Z,14.70
2019-06-26T23:20:16.190Z,6.05
2019-06-26T23:22:45.388Z,10.78
2019-06-26T23:25:18.103Z,6.72
2019-06-26T23:27:47.380Z,6.75
2019-06-26T23:30:18.513Z,8.03
2019-06-26T23:32:47.872Z,8.98
2019-06-26T23:35:17.292Z,7.55
2019-06-26T23:37:46.502Z,10.60
2019-06-26T23:40:16.957Z,8.53
2019-06-26T23:42:46.175Z,14.45
2019-06-26T23:45:15.525Z,7.17
2019-06-26T23:47:44.672Z,10.43
2019-06-26T23:50:14.858Z,8.75
2019-06-26T23:52:44.018Z,12.30
2019-06-26T23:55:15.155Z,10.05
2019-06-26T23:57:58.650Z,10.65
